TAX94MB LPPT-LPMA
Flight info
| Callsign | TAX94MB |
|---|---|
| Flight time | N/A |
| Altitude | 33000 |
| Route | ULVOT DCT GALPA DCT RAKUN |
| Aircraft | A321/M-SDE3FGHIJ1RWXY/LB1 |
Departure
| Time | 2026-04-29 10:54 |
|---|---|
| Airport | Lisbon Humberto Delgado Airport (LPPT) |
Arrival
| Time | N/A |
|---|---|
| Airport | Cristiano Ronaldo International Airport (LPMA) |
| Time | Latitude | Longitude | Altitude | Speed | Heading |
|---|---|---|---|---|---|
| 2026-04-29 10:29 | 38.77254 | -9.13153 | 351 ft | 0 kts | 77° |
| 2026-04-29 10:45 | 38.77254 | -9.13154 | 342 ft | 1 kts | 77° |
| 2026-04-29 10:45 | 38.77251 | -9.13172 | 354 ft | 3 kts | 77° |
| 2026-04-29 10:46 | 38.77247 | -9.13197 | 352 ft | 3 kts | 77° |
| 2026-04-29 10:46 | 38.77242 | -9.13219 | 351 ft | 3 kts | 52° |
| 2026-04-29 10:46 | 38.77229 | -9.13231 | 351 ft | 3 kts | 3° |
| 2026-04-29 10:46 | 38.77220 | -9.13231 | 351 ft | 1 kts | 348° |
| 2026-04-29 10:47 | 38.77235 | -9.13235 | 348 ft | 2 kts | 348° |
| 2026-04-29 10:47 | 38.77241 | -9.13236 | 349 ft | 1 kts | 348° |
| 2026-04-29 10:49 | 38.77245 | -9.13237 | 349 ft | 2 kts | 348° |
| 2026-04-29 10:49 | 38.77266 | -9.13243 | 347 ft | 5 kts | 348° |
| 2026-04-29 10:50 | 38.77306 | -9.13253 | 343 ft | 7 kts | 351° |
| 2026-04-29 10:50 | 38.77361 | -9.13263 | 351 ft | 9 kts | 353° |
| 2026-04-29 10:50 | 38.77435 | -9.13280 | 345 ft | 12 kts | 347° |
| 2026-04-29 10:50 | 38.77524 | -9.13304 | 351 ft | 14 kts | 348° |
| 2026-04-29 10:51 | 38.77623 | -9.13320 | 348 ft | 15 kts | 358° |
| 2026-04-29 10:51 | 38.77728 | -9.13337 | 346 ft | 16 kts | 348° |
| 2026-04-29 10:51 | 38.77843 | -9.13368 | 353 ft | 18 kts | 348° |
| 2026-04-29 10:51 | 38.77968 | -9.13402 | 361 ft | 19 kts | 348° |
| 2026-04-29 10:52 | 38.78100 | -9.13380 | 363 ft | 20 kts | 24° |
| 2026-04-29 10:52 | 38.78232 | -9.13310 | 366 ft | 21 kts | 18° |
| 2026-04-29 10:52 | 38.78362 | -9.13238 | 367 ft | 19 kts | 21° |
| 2026-04-29 10:52 | 38.78490 | -9.13231 | 366 ft | 12 kts | 336° |
| 2026-04-29 10:53 | 38.78547 | -9.13311 | 365 ft | 13 kts | 297° |
| 2026-04-29 10:53 | 38.78549 | -9.13366 | 366 ft | 6 kts | 223° |
| 2026-04-29 10:53 | 38.78502 | -9.13393 | 371 ft | 12 kts | 203° |
| 2026-04-29 10:53 | 38.78208 | -9.13551 | 372 ft | 82 kts | 204° |
| 2026-04-29 10:54 | 38.77481 | -9.13942 | 372 ft | 142 kts | 203° |
| 2026-04-29 10:54 | 38.76540 | -9.14435 | 842 ft | 141 kts | 205° |
| 2026-04-29 10:54 | 38.75625 | -9.14940 | 1345 ft | 150 kts | 206° |
| 2026-04-29 10:54 | 38.74594 | -9.15494 | 1674 ft | 171 kts | 206° |
| 2026-04-29 10:55 | 38.73440 | -9.16118 | 2094 ft | 189 kts | 205° |
| 2026-04-29 10:55 | 38.72174 | -9.16793 | 2632 ft | 204 kts | 204° |
| 2026-04-29 10:55 | 38.70799 | -9.17526 | 3105 ft | 224 kts | 204° |
| 2026-04-29 10:55 | 38.69321 | -9.18314 | 3764 ft | 234 kts | 204° |
| 2026-04-29 10:56 | 38.67766 | -9.19143 | 4360 ft | 248 kts | 204° |
| 2026-04-29 10:56 | 38.66149 | -9.20005 | 5112 ft | 254 kts | 204° |
| 2026-04-29 10:56 | 38.64502 | -9.20882 | 5909 ft | 258 kts | 203° |
| 2026-04-29 10:56 | 38.62781 | -9.21609 | 6675 ft | 262 kts | 197° |
| 2026-04-29 10:57 | 38.61011 | -9.22229 | 7444 ft | 265 kts | 197° |
| 2026-04-29 10:57 | 38.59221 | -9.22847 | 8228 ft | 268 kts | 197° |
| 2026-04-29 10:57 | 38.57412 | -9.23471 | 9027 ft | 271 kts | 197° |
| 2026-04-29 10:57 | 38.55611 | -9.24221 | 9796 ft | 276 kts | 204° |
| 2026-04-29 10:58 | 38.53917 | -9.25506 | 10123 ft | 294 kts | 220° |
| 2026-04-29 10:58 | 38.52446 | -9.27436 | 10401 ft | 313 kts | 229° |
| 2026-04-29 10:58 | 38.50993 | -9.29621 | 10653 ft | 333 kts | 230° |
| 2026-04-29 10:58 | 38.49450 | -9.31934 | 10933 ft | 350 kts | 230° |
| 2026-04-29 10:59 | 38.47843 | -9.34314 | 11450 ft | 357 kts | 229° |
| 2026-04-29 10:59 | 38.46198 | -9.36707 | 12110 ft | 360 kts | 229° |
| 2026-04-29 10:59 | 38.44535 | -9.39118 | 12767 ft | 363 kts | 229° |
| 2026-04-29 10:59 | 38.42859 | -9.41543 | 13390 ft | 366 kts | 229° |
| 2026-04-29 11:00 | 38.41166 | -9.43988 | 13966 ft | 369 kts | 229° |
| 2026-04-29 11:00 | 38.39462 | -9.46450 | 14512 ft | 371 kts | 229° |
| 2026-04-29 11:00 | 38.37741 | -9.48931 | 14976 ft | 376 kts | 230° |
| 2026-04-29 11:00 | 38.36003 | -9.51439 | 15468 ft | 379 kts | 230° |
| 2026-04-29 11:01 | 38.34251 | -9.53963 | 15982 ft | 381 kts | 230° |
| 2026-04-29 11:01 | 38.32490 | -9.56489 | 16513 ft | 383 kts | 230° |
| 2026-04-29 11:01 | 38.30716 | -9.59034 | 16993 ft | 385 kts | 230° |
| 2026-04-29 11:01 | 38.28938 | -9.61584 | 17483 ft | 386 kts | 230° |
| 2026-04-29 11:02 | 38.27172 | -9.64115 | 17978 ft | 388 kts | 231° |
| 2026-04-29 11:02 | 38.25378 | -9.66684 | 18433 ft | 389 kts | 231° |
| 2026-04-29 11:02 | 38.23587 | -9.69245 | 18992 ft | 386 kts | 231° |
| 2026-04-29 11:02 | 38.21803 | -9.71792 | 19474 ft | 386 kts | 231° |
| 2026-04-29 11:03 | 38.20018 | -9.74343 | 19921 ft | 387 kts | 231° |
| 2026-04-29 11:03 | 38.18226 | -9.76905 | 20366 ft | 388 kts | 232° |
| 2026-04-29 11:03 | 38.16428 | -9.79470 | 20822 ft | 389 kts | 232° |
| 2026-04-29 11:03 | 38.14627 | -9.82036 | 21288 ft | 390 kts | 232° |
| 2026-04-29 11:04 | 38.12817 | -9.84614 | 21760 ft | 392 kts | 233° |
| 2026-04-29 11:04 | 38.10996 | -9.87209 | 22173 ft | 395 kts | 233° |
| 2026-04-29 11:04 | 38.09156 | -9.89822 | 22622 ft | 397 kts | 233° |
| 2026-04-29 11:04 | 38.07311 | -9.92443 | 23087 ft | 399 kts | 233° |
| 2026-04-29 11:05 | 38.05459 | -9.95071 | 23536 ft | 400 kts | 233° |
| 2026-04-29 11:05 | 38.03596 | -9.97713 | 23913 ft | 402 kts | 233° |
| 2026-04-29 11:05 | 38.01726 | -10.00362 | 24278 ft | 404 kts | 233° |
| 2026-04-29 11:05 | 38.00484 | -10.02122 | 24519 ft | 405 kts | 233° |
| 2026-04-29 11:06 | 37.98603 | -10.04786 | 24879 ft | 407 kts | 233° |
| 2026-04-29 11:06 | 37.96707 | -10.07467 | 25221 ft | 409 kts | 233° |
| 2026-04-29 11:06 | 37.94807 | -10.10153 | 25555 ft | 410 kts | 233° |
| 2026-04-29 11:06 | 37.92895 | -10.12851 | 25890 ft | 412 kts | 233° |
| 2026-04-29 11:07 | 37.90352 | -10.16438 | 26345 ft | 413 kts | 233° |
| 2026-04-29 11:07 | 37.89058 | -10.18261 | 26631 ft | 412 kts | 233° |
| 2026-04-29 11:07 | 37.87143 | -10.20956 | 27044 ft | 411 kts | 233° |
| 2026-04-29 11:07 | 37.85232 | -10.23645 | 27394 ft | 411 kts | 233° |
| 2026-04-29 11:08 | 37.83320 | -10.26332 | 27777 ft | 410 kts | 233° |
| 2026-04-29 11:08 | 37.81410 | -10.29014 | 28177 ft | 409 kts | 233° |
| 2026-04-29 11:08 | 37.79507 | -10.31685 | 28592 ft | 408 kts | 233° |
| 2026-04-29 11:08 | 37.77614 | -10.34341 | 29005 ft | 407 kts | 233° |
| 2026-04-29 11:09 | 37.75721 | -10.36992 | 29402 ft | 406 kts | 233° |
| 2026-04-29 11:09 | 37.73859 | -10.39601 | 29787 ft | 405 kts | 233° |
| 2026-04-29 11:09 | 37.71973 | -10.42240 | 30079 ft | 404 kts | 233° |
| 2026-04-29 11:09 | 37.70087 | -10.44876 | 30316 ft | 405 kts | 233° |
| 2026-04-29 11:10 | 37.68196 | -10.47516 | 30594 ft | 406 kts | 233° |
| 2026-04-29 11:10 | 37.66301 | -10.50160 | 30896 ft | 405 kts | 233° |
| 2026-04-29 11:10 | 37.64411 | -10.52795 | 31195 ft | 405 kts | 233° |
| 2026-04-29 11:10 | 37.62526 | -10.55425 | 31490 ft | 404 kts | 233° |
| 2026-04-29 11:11 | 37.60639 | -10.58055 | 31771 ft | 404 kts | 233° |
| 2026-04-29 11:11 | 37.58752 | -10.60682 | 32008 ft | 405 kts | 233° |
| 2026-04-29 11:11 | 37.56861 | -10.63311 | 32260 ft | 405 kts | 233° |
| 2026-04-29 11:11 | 37.54968 | -10.65941 | 32524 ft | 405 kts | 233° |
| 2026-04-29 11:12 | 37.53078 | -10.68562 | 32797 ft | 404 kts | 233° |
| 2026-04-29 11:12 | 37.51187 | -10.71185 | 33066 ft | 404 kts | 233° |
| 2026-04-29 11:12 | 37.49296 | -10.73802 | 33312 ft | 403 kts | 233° |
| 2026-04-29 11:12 | 37.47412 | -10.76411 | 33548 ft | 403 kts | 233° |
| 2026-04-29 11:13 | 37.45525 | -10.79021 | 33719 ft | 403 kts | 233° |
| 2026-04-29 11:13 | 37.43634 | -10.81636 | 33879 ft | 404 kts | 233° |
| 2026-04-29 11:13 | 37.41741 | -10.84248 | 34035 ft | 405 kts | 233° |
| 2026-04-29 11:13 | 37.39868 | -10.86831 | 34202 ft | 405 kts | 232° |
| 2026-04-29 11:14 | 37.37947 | -10.89480 | 34383 ft | 405 kts | 232° |
| 2026-04-29 11:14 | 37.36074 | -10.92060 | 34541 ft | 405 kts | 232° |
| 2026-04-29 11:14 | 37.34176 | -10.94672 | 34698 ft | 405 kts | 232° |
| 2026-04-29 11:14 | 37.32277 | -10.97285 | 34824 ft | 405 kts | 232° |
| 2026-04-29 11:15 | 37.30375 | -10.99901 | 34938 ft | 406 kts | 232° |
| 2026-04-29 11:15 | 37.26557 | -11.05138 | 34942 ft | 406 kts | 232° |
| 2026-04-29 11:16 | 37.22740 | -11.10368 | 34921 ft | 406 kts | 232° |
| 2026-04-29 11:16 | 37.18922 | -11.15591 | 34919 ft | 406 kts | 232° |
| 2026-04-29 11:17 | 37.15095 | -11.20817 | 34912 ft | 407 kts | 232° |
| 2026-04-29 11:17 | 37.11267 | -11.26039 | 34920 ft | 407 kts | 232° |
| 2026-04-29 11:18 | 37.07433 | -11.31258 | 34930 ft | 407 kts | 232° |
| 2026-04-29 11:18 | 37.03585 | -11.36489 | 34926 ft | 409 kts | 232° |
| 2026-04-29 11:19 | 36.99733 | -11.41716 | 34928 ft | 409 kts | 232° |
| 2026-04-29 11:19 | 36.95875 | -11.46943 | 34931 ft | 409 kts | 232° |
| 2026-04-29 11:20 | 36.92016 | -11.52159 | 34930 ft | 409 kts | 232° |
| 2026-04-29 11:20 | 36.88180 | -11.57338 | 34924 ft | 408 kts | 231° |
| 2026-04-29 11:21 | 36.84320 | -11.62544 | 34925 ft | 408 kts | 231° |
| 2026-04-29 11:21 | 36.80459 | -11.67742 | 34932 ft | 408 kts | 231° |
| 2026-04-29 11:22 | 36.76595 | -11.72938 | 34934 ft | 408 kts | 231° |
| 2026-04-29 11:22 | 36.72727 | -11.78128 | 34943 ft | 409 kts | 231° |
| 2026-04-29 11:23 | 36.68858 | -11.83310 | 34941 ft | 408 kts | 231° |
| 2026-04-29 11:23 | 36.64982 | -11.88496 | 34929 ft | 409 kts | 231° |
| 2026-04-29 11:24 | 36.61107 | -11.93674 | 34932 ft | 409 kts | 231° |
| 2026-04-29 11:24 | 36.57229 | -11.98846 | 34942 ft | 409 kts | 231° |
| 2026-04-29 11:25 | 36.53346 | -12.04013 | 34944 ft | 409 kts | 231° |
| 2026-04-29 11:25 | 36.49452 | -12.09190 | 34945 ft | 410 kts | 231° |
| 2026-04-29 11:26 | 36.43603 | -12.16949 | 34947 ft | 410 kts | 231° |
| 2026-04-29 11:26 | 36.39701 | -12.22117 | 34950 ft | 410 kts | 231° |
| 2026-04-29 11:27 | 36.35799 | -12.27275 | 34950 ft | 411 kts | 231° |
| 2026-04-29 11:27 | 36.31916 | -12.32399 | 34942 ft | 410 kts | 231° |
| 2026-04-29 11:28 | 36.28004 | -12.37555 | 34953 ft | 410 kts | 231° |
| 2026-04-29 11:28 | 36.24094 | -12.42700 | 34955 ft | 411 kts | 231° |
| 2026-04-29 11:29 | 36.20165 | -12.47864 | 34955 ft | 411 kts | 231° |
| 2026-04-29 11:29 | 36.16238 | -12.53014 | 34959 ft | 411 kts | 231° |
| 2026-04-29 11:30 | 36.12305 | -12.58164 | 34961 ft | 411 kts | 231° |
| 2026-04-29 11:30 | 36.08373 | -12.63307 | 34964 ft | 412 kts | 231° |
| 2026-04-29 11:31 | 36.04424 | -12.68462 | 34950 ft | 414 kts | 230° |
| 2026-04-29 11:31 | 36.00495 | -12.73584 | 34959 ft | 414 kts | 230° |
| 2026-04-29 11:32 | 35.96511 | -12.78770 | 34962 ft | 415 kts | 230° |
| 2026-04-29 11:32 | 35.92560 | -12.83903 | 34964 ft | 415 kts | 230° |
| 2026-04-29 11:33 | 35.88586 | -12.89060 | 34965 ft | 415 kts | 230° |
| 2026-04-29 11:33 | 35.84605 | -12.94217 | 34970 ft | 415 kts | 230° |
| 2026-04-29 11:34 | 35.80624 | -12.99365 | 34967 ft | 415 kts | 230° |
| 2026-04-29 11:34 | 35.76633 | -13.04519 | 34959 ft | 416 kts | 230° |
| 2026-04-29 11:35 | 35.72640 | -13.09666 | 34971 ft | 416 kts | 230° |
| 2026-04-29 11:35 | 35.68648 | -13.14807 | 34969 ft | 417 kts | 230° |
| 2026-04-29 11:36 | 35.64639 | -13.19960 | 34968 ft | 417 kts | 230° |
| 2026-04-29 11:36 | 35.60630 | -13.25106 | 34970 ft | 417 kts | 230° |
| 2026-04-29 11:37 | 35.56612 | -13.30251 | 34973 ft | 417 kts | 230° |
| 2026-04-29 11:37 | 35.52598 | -13.35388 | 34979 ft | 417 kts | 230° |
| 2026-04-29 11:38 | 35.48575 | -13.40528 | 34969 ft | 418 kts | 230° |
| 2026-04-29 11:38 | 35.44551 | -13.45661 | 34972 ft | 417 kts | 230° |
| 2026-04-29 11:39 | 35.40524 | -13.50787 | 34972 ft | 418 kts | 229° |
| 2026-04-29 11:39 | 35.36512 | -13.55888 | 34977 ft | 418 kts | 229° |
| 2026-04-29 11:40 | 35.32473 | -13.61017 | 34980 ft | 418 kts | 229° |
| 2026-04-29 11:40 | 35.28431 | -13.66141 | 34979 ft | 418 kts | 229° |
| 2026-04-29 11:41 | 35.24389 | -13.71258 | 34985 ft | 418 kts | 229° |
| 2026-04-29 11:41 | 35.20345 | -13.76369 | 34985 ft | 418 kts | 229° |
| 2026-04-29 11:42 | 35.16295 | -13.81478 | 34984 ft | 419 kts | 229° |
| 2026-04-29 11:42 | 35.12245 | -13.86582 | 34987 ft | 419 kts | 229° |
| 2026-04-29 11:43 | 35.08191 | -13.91683 | 34985 ft | 418 kts | 229° |
| 2026-04-29 11:43 | 35.04137 | -13.96775 | 34992 ft | 418 kts | 229° |
| 2026-04-29 11:44 | 35.00076 | -14.01869 | 34989 ft | 418 kts | 229° |
| 2026-04-29 11:44 | 34.96017 | -14.06951 | 34988 ft | 419 kts | 229° |
| 2026-04-29 11:45 | 34.91955 | -14.12029 | 34970 ft | 419 kts | 229° |
| 2026-04-29 11:45 | 34.87876 | -14.17121 | 34988 ft | 419 kts | 229° |
| 2026-04-29 11:46 | 34.83802 | -14.22200 | 34999 ft | 419 kts | 229° |
| 2026-04-29 11:46 | 34.79724 | -14.27275 | 35002 ft | 419 kts | 229° |
| 2026-04-29 11:47 | 34.75644 | -14.32346 | 34996 ft | 419 kts | 229° |
| 2026-04-29 11:47 | 34.71563 | -14.37410 | 34994 ft | 419 kts | 229° |
| 2026-04-29 11:48 | 34.67506 | -14.42436 | 34995 ft | 419 kts | 228° |
| 2026-04-29 11:48 | 34.63421 | -14.47490 | 34995 ft | 419 kts | 228° |
| 2026-04-29 11:49 | 34.59325 | -14.52550 | 34992 ft | 420 kts | 228° |
| 2026-04-29 11:49 | 34.55220 | -14.57613 | 34996 ft | 420 kts | 228° |
| 2026-04-29 11:50 | 34.51123 | -14.62662 | 34994 ft | 420 kts | 228° |
| 2026-04-29 11:50 | 34.47024 | -14.67704 | 35006 ft | 420 kts | 228° |
| 2026-04-29 11:51 | 34.42923 | -14.72742 | 35006 ft | 420 kts | 228° |
| 2026-04-29 11:51 | 34.38819 | -14.77773 | 35001 ft | 420 kts | 228° |
| 2026-04-29 11:52 | 34.34712 | -14.82802 | 34996 ft | 420 kts | 228° |
| 2026-04-29 11:52 | 34.30603 | -14.87827 | 34994 ft | 421 kts | 228° |
| 2026-04-29 11:53 | 34.26485 | -14.92853 | 35004 ft | 421 kts | 227° |
| 2026-04-29 11:53 | 34.22375 | -14.97866 | 35000 ft | 420 kts | 227° |
| 2026-04-29 11:54 | 34.18261 | -15.02875 | 35005 ft | 420 kts | 227° |
| 2026-04-29 11:54 | 34.14146 | -15.07878 | 35006 ft | 420 kts | 227° |
| 2026-04-29 11:55 | 34.10029 | -15.12874 | 35006 ft | 420 kts | 227° |
| 2026-04-29 11:55 | 34.05907 | -15.17867 | 35006 ft | 420 kts | 227° |
| 2026-04-29 11:56 | 34.01787 | -15.22854 | 35002 ft | 420 kts | 227° |
| 2026-04-29 11:56 | 33.97687 | -15.27809 | 35008 ft | 420 kts | 227° |
| 2026-04-29 11:57 | 33.93557 | -15.32792 | 35008 ft | 420 kts | 227° |
| 2026-04-29 11:57 | 33.89430 | -15.37763 | 34999 ft | 417 kts | 227° |
| 2026-04-29 11:58 | 33.87382 | -15.40229 | 34271 ft | 418 kts | 227° |
| 2026-04-29 11:58 | 33.85981 | -15.41915 | 33459 ft | 425 kts | 227° |
| 2026-04-29 11:58 | 33.83862 | -15.44463 | 32224 ft | 435 kts | 226° |
| 2026-04-29 11:58 | 33.81710 | -15.47049 | 31328 ft | 437 kts | 226° |
| 2026-04-29 11:59 | 33.79565 | -15.49624 | 30634 ft | 435 kts | 226° |
| 2026-04-29 11:59 | 33.77431 | -15.52182 | 29973 ft | 432 kts | 225° |
| 2026-04-29 11:59 | 33.75303 | -15.54732 | 29155 ft | 433 kts | 225° |
| 2026-04-29 11:59 | 33.73169 | -15.57288 | 28336 ft | 433 kts | 225° |
| 2026-04-29 12:00 | 33.71063 | -15.59809 | 27592 ft | 433 kts | 225° |
| 2026-04-29 12:00 | 33.68899 | -15.62396 | 26864 ft | 432 kts | 225° |
| 2026-04-29 12:00 | 33.66770 | -15.64940 | 26225 ft | 431 kts | 225° |
| 2026-04-29 12:00 | 33.64654 | -15.67468 | 25596 ft | 428 kts | 225° |
| 2026-04-29 12:01 | 33.62574 | -15.69950 | 24992 ft | 426 kts | 225° |
| 2026-04-29 12:01 | 33.59764 | -15.73300 | 24149 ft | 425 kts | 225° |
| 2026-04-29 12:01 | 33.58377 | -15.74951 | 23733 ft | 424 kts | 225° |
| 2026-04-29 12:01 | 33.56285 | -15.77440 | 23027 ft | 423 kts | 225° |
| 2026-04-29 12:02 | 33.54192 | -15.79921 | 22313 ft | 423 kts | 225° |
| 2026-04-29 12:02 | 33.52093 | -15.82382 | 21615 ft | 422 kts | 225° |
| 2026-04-29 12:02 | 33.49997 | -15.84835 | 20940 ft | 421 kts | 225° |
| 2026-04-29 12:02 | 33.47906 | -15.87282 | 20298 ft | 419 kts | 225° |
| 2026-04-29 12:03 | 33.45826 | -15.89716 | 19677 ft | 417 kts | 225° |
| 2026-04-29 12:03 | 33.43756 | -15.92139 | 19058 ft | 415 kts | 225° |
| 2026-04-29 12:03 | 33.41693 | -15.94550 | 18479 ft | 414 kts | 225° |
| 2026-04-29 12:03 | 33.39637 | -15.96953 | 17849 ft | 412 kts | 225° |
| 2026-04-29 12:04 | 33.37588 | -15.99345 | 17215 ft | 411 kts | 225° |
| 2026-04-29 12:04 | 33.35548 | -16.01726 | 16607 ft | 407 kts | 225° |
| 2026-04-29 12:04 | 33.33541 | -16.04065 | 16016 ft | 400 kts | 225° |
| 2026-04-29 12:04 | 33.31568 | -16.06367 | 15445 ft | 393 kts | 225° |
| 2026-04-29 12:05 | 33.29626 | -16.08631 | 14911 ft | 386 kts | 225° |
| 2026-04-29 12:05 | 33.27718 | -16.10851 | 14365 ft | 381 kts | 225° |
| 2026-04-29 12:05 | 33.25832 | -16.13045 | 13823 ft | 376 kts | 225° |
| 2026-04-29 12:05 | 33.23973 | -16.15206 | 13268 ft | 370 kts | 225° |
| 2026-04-29 12:06 | 33.22137 | -16.17338 | 12736 ft | 368 kts | 225° |
| 2026-04-29 12:06 | 33.20299 | -16.19472 | 12229 ft | 368 kts | 225° |
| 2026-04-29 12:06 | 33.18463 | -16.21603 | 11706 ft | 368 kts | 225° |
| 2026-04-29 12:06 | 33.16656 | -16.23702 | 11377 ft | 357 kts | 225° |
| 2026-04-29 12:07 | 33.14906 | -16.25730 | 11166 ft | 344 kts | 224° |
| 2026-04-29 12:07 | 33.13227 | -16.27675 | 11004 ft | 330 kts | 224° |
| 2026-04-29 12:07 | 33.11612 | -16.29545 | 10864 ft | 317 kts | 224° |
| 2026-04-29 12:07 | 33.10060 | -16.31340 | 10731 ft | 305 kts | 224° |
| 2026-04-29 12:08 | 33.08569 | -16.33065 | 10604 ft | 293 kts | 224° |
| 2026-04-29 12:08 | 33.07130 | -16.34730 | 10476 ft | 283 kts | 224° |
| 2026-04-29 12:08 | 33.05748 | -16.36326 | 10352 ft | 271 kts | 224° |
| 2026-04-29 12:08 | 33.04418 | -16.37862 | 10220 ft | 261 kts | 224° |
| 2026-04-29 12:09 | 33.03124 | -16.39355 | 9952 ft | 257 kts | 224° |
| 2026-04-29 12:09 | 33.01841 | -16.40836 | 9594 ft | 256 kts | 224° |
| 2026-04-29 12:09 | 33.00563 | -16.42311 | 9220 ft | 255 kts | 224° |
| 2026-04-29 12:09 | 32.99291 | -16.43775 | 8847 ft | 254 kts | 224° |
| 2026-04-29 12:10 | 32.98027 | -16.45232 | 8476 ft | 253 kts | 224° |
| 2026-04-29 12:10 | 32.96766 | -16.46685 | 8105 ft | 251 kts | 224° |
| 2026-04-29 12:10 | 32.95511 | -16.48130 | 7739 ft | 251 kts | 224° |
| 2026-04-29 12:10 | 32.94261 | -16.49569 | 7376 ft | 250 kts | 224° |
| 2026-04-29 12:11 | 32.93011 | -16.51007 | 7016 ft | 250 kts | 224° |
| 2026-04-29 12:11 | 32.91742 | -16.52417 | 6667 ft | 249 kts | 221° |
| 2026-04-29 12:11 | 32.90452 | -16.53785 | 6327 ft | 248 kts | 221° |
| 2026-04-29 12:11 | 32.89167 | -16.55147 | 5970 ft | 247 kts | 221° |
| 2026-04-29 12:12 | 32.87889 | -16.56505 | 5619 ft | 246 kts | 221° |